createdAt,value
2023-01-09T00:02:44.603Z,3.65
2023-01-09T00:05:32.159Z,2.80
2023-01-09T00:08:19.648Z,3.17
2023-01-09T00:11:07.583Z,2.42
2023-01-09T00:13:56.523Z,2.33
2023-01-09T00:16:44.796Z,2.03
2023-01-09T00:19:32.120Z,1.77
2023-01-09T00:22:19.708Z,1.42
2023-01-09T00:25:08.031Z,2.40
2023-01-09T00:27:55.399Z,2.45
2023-01-09T00:30:44.184Z,1.77
2023-01-09T00:33:34.459Z,0.80
2023-01-09T00:36:21.676Z,1.02
2023-01-09T00:39:09.239Z,0.80
2023-01-09T00:41:58.669Z,1.10
2023-01-09T00:44:47.830Z,1.33
2023-01-09T00:47:40.850Z,1.17
2023-01-09T00:50:31.925Z,2.30
2023-01-09T00:53:23.334Z,2.17
2023-01-09T00:56:14.839Z,1.10
2023-01-09T00:59:02.673Z,0.90
2023-01-09T01:01:50.170Z,0.80
2023-01-09T01:04:56.116Z,0.80
2023-01-09T01:07:43.425Z,1.98
2023-01-09T01:10:30.793Z,1.50
2023-01-09T01:13:20.030Z,1.67
2023-01-09T01:16:11.538Z,1.30
2023-01-09T01:19:01.259Z,0.85
2023-01-09T01:21:53.149Z,1.30
2023-01-09T01:24:43.199Z,2.10
2023-01-09T01:27:32.179Z,1.77
2023-01-09T01:30:22.311Z,2.17
2023-01-09T01:33:13.411Z,1.58
2023-01-09T01:36:02.452Z,1.13
2023-01-09T01:38:51.235Z,2.05
2023-01-09T01:41:39.264Z,1.38
2023-01-09T01:44:59.316Z,1.63
2023-01-09T01:47:55.610Z,1.70
2023-01-09T01:50:47.430Z,1.30
2023-01-09T01:53:37.731Z,2.00
2023-01-09T01:56:29.777Z,1.52
2023-01-09T01:59:20.028Z,1.20
2023-01-09T02:02:08.801Z,1.85
2023-01-09T02:04:58.017Z,2.70
2023-01-09T02:07:45.387Z,2.50
2023-01-09T02:10:33.655Z,2.55
2023-01-09T02:13:22.702Z,2.08
2023-01-09T02:16:23.781Z,1.67
2023-01-09T02:19:29.082Z,2.42
2023-01-09T02:22:26.242Z,4.93
2023-01-09T02:25:35.927Z,2.17
2023-01-09T02:28:45.109Z,2.05
2023-01-09T02:31:38.959Z,2.30
2023-01-09T02:34:32.847Z,2.83
2023-01-09T02:37:32.474Z,2.83
2023-01-09T02:40:26.193Z,3.70
2023-01-09T02:43:14.518Z,4.45
2023-01-09T02:46:02.219Z,2.53
2023-01-09T02:48:54.779Z,1.50
2023-01-09T02:51:51.586Z,4.07
2023-01-09T02:54:51.771Z,3.00
2023-01-09T02:57:53.253Z,2.53
2023-01-09T03:00:48.756Z,3.22
2023-01-09T03:03:46.857Z,2.60
2023-01-09T03:06:41.313Z,3.17
2023-01-09T03:09:32.830Z,3.42
2023-01-09T03:12:24.723Z,2.72
2023-01-09T03:15:16.198Z,3.55
2023-01-09T03:18:06.862Z,2.38
2023-01-09T03:20:56.226Z,3.00
2023-01-09T03:23:50.871Z,4.28
2023-01-09T03:26:38.380Z,3.72
2023-01-09T03:29:26.665Z,3.53
2023-01-09T03:32:14.848Z,5.97
2023-01-09T03:35:02.405Z,3.72
2023-01-09T03:37:51.749Z,4.47
2023-01-09T03:40:40.398Z,4.00
2023-01-09T03:43:27.976Z,5.32
2023-01-09T03:46:16.020Z,5.53
2023-01-09T03:49:03.619Z,5.60
2023-01-09T03:51:51.250Z,4.65
2023-01-09T03:54:39.427Z,5.22
2023-01-09T03:57:28.294Z,4.35
2023-01-09T04:00:16.406Z,2.30
2023-01-09T04:03:03.925Z,3.38
2023-01-09T04:05:53.208Z,4.00
2023-01-09T04:08:40.428Z,2.17
2023-01-09T04:11:27.744Z,3.33
2023-01-09T04:14:16.448Z,3.08
2023-01-09T04:17:03.686Z,3.03
2023-01-09T04:19:51.098Z,3.42
2023-01-09T04:22:38.788Z,2.55
2023-01-09T04:25:26.637Z,3.58
2023-01-09T04:28:14.075Z,8.93
2023-01-09T04:31:03.367Z,3.55
2023-01-09T04:33:50.685Z,4.05
2023-01-09T04:36:38.824Z,2.40
2023-01-09T04:39:26.311Z,2.45
2023-01-09T04:42:14.390Z,2.97
2023-01-09T04:45:01.795Z,2.20
2023-01-09T04:47:50.157Z,3.75
2023-01-09T04:50:37.472Z,3.28
2023-01-09T04:53:24.844Z,5.60
2023-01-09T04:56:12.631Z,3.83
2023-01-09T04:58:59.985Z,4.85
2023-01-09T05:01:47.505Z,5.85
2023-01-09T05:04:36.467Z,4.80
2023-01-09T05:07:24.288Z,4.25
2023-01-09T05:10:12.252Z,2.50
2023-01-09T05:12:59.465Z,3.35
2023-01-09T05:15:47.231Z,5.40
2023-01-09T05:18:34.669Z,4.13
2023-01-09T05:21:23.954Z,4.22
2023-01-09T05:24:11.191Z,3.42
2023-01-09T05:26:58.526Z,3.55
2023-01-09T05:29:45.895Z,1.65
2023-01-09T05:32:33.556Z,3.53
2023-01-09T05:35:21.299Z,2.58
2023-01-09T05:38:09.842Z,1.70
2023-01-09T05:40:57.548Z,3.47
2023-01-09T05:43:45.048Z,3.03
2023-01-09T05:46:32.584Z,1.48
2023-01-09T05:49:20.130Z,2.67
2023-01-09T05:52:07.984Z,1.50
2023-01-09T05:54:56.521Z,4.47
2023-01-09T05:57:43.983Z,3.08
2023-01-09T06:00:31.644Z,1.48
2023-01-09T06:03:19.210Z,2.75
2023-01-09T06:06:07.332Z,1.42
2023-01-09T06:08:55.022Z,2.17
2023-01-09T06:11:44.021Z,3.22
2023-01-09T06:14:31.669Z,2.38
2023-01-09T06:17:19.234Z,2.20
2023-01-09T06:20:07.643Z,1.17
2023-01-09T06:22:54.981Z,2.58
2023-01-09T06:25:42.618Z,1.88
2023-01-09T06:28:31.582Z,3.08
2023-01-09T06:31:19.383Z,1.88
2023-01-09T06:34:06.910Z,4.05
2023-01-09T06:36:54.344Z,5.82
2023-01-09T06:39:41.770Z,3.20
2023-01-09T06:42:29.369Z,4.28
2023-01-09T06:45:18.452Z,3.53
2023-01-09T06:48:05.977Z,7.25
2023-01-09T06:50:53.749Z,4.03
2023-01-09T06:53:41.161Z,5.32
2023-01-09T06:56:28.414Z,3.92
2023-01-09T06:59:15.931Z,3.63
2023-01-09T07:02:06.500Z,4.80
2023-01-09T07:04:54.226Z,5.03
2023-01-09T07:07:42.315Z,8.05
2023-01-09T07:10:29.718Z,3.40
2023-01-09T07:13:17.011Z,3.50
2023-01-09T07:16:05.705Z,5.15
2023-01-09T07:18:54.929Z,3.75
2023-01-09T07:21:42.244Z,1.48
2023-01-09T07:24:29.820Z,1.55
2023-01-09T07:27:17.379Z,4.75
2023-01-09T07:30:05.730Z,1.65
2023-01-09T07:32:55.338Z,2.55
2023-01-09T07:35:44.203Z,3.25
2023-01-09T07:38:33.046Z,1.50
2023-01-09T07:41:20.401Z,2.30
2023-01-09T07:44:10.929Z,1.98
2023-01-09T07:46:58.708Z,3.65
2023-01-09T07:49:46.335Z,3.28
2023-01-09T07:52:35.174Z,3.55
2023-01-09T07:55:22.460Z,2.10
2023-01-09T07:58:10.157Z,4.28
2023-01-09T08:00:57.592Z,2.38
2023-01-09T08:03:44.957Z,3.70
2023-01-09T08:06:34.793Z,3.10
2023-01-09T08:09:23.808Z,2.22
2023-01-09T08:12:11.369Z,2.53
2023-01-09T08:14:59.506Z,4.95
2023-01-09T08:17:48.283Z,2.13
2023-01-09T08:20:35.434Z,1.48
2023-01-09T08:23:22.762Z,2.38
2023-01-09T08:26:11.899Z,2.53
2023-01-09T08:28:59.202Z,2.65
2023-01-09T08:31:46.854Z,2.53
2023-01-09T08:34:34.329Z,2.92
2023-01-09T08:37:21.714Z,5.35
2023-01-09T08:40:10.914Z,1.95
2023-01-09T08:43:17.220Z,2.88
2023-01-09T08:46:21.929Z,2.15
2023-01-09T08:49:09.464Z,1.60
2023-01-09T08:51:56.576Z,2.70
2023-01-09T08:54:44.157Z,3.83
2023-01-09T08:57:31.839Z,1.55
2023-01-09T09:00:22.653Z,1.38
2023-01-09T09:03:10.919Z,1.77
2023-01-09T09:05:58.329Z,2.65
2023-01-09T09:08:45.673Z,1.35
2023-01-09T09:11:33.155Z,3.10
2023-01-09T09:14:37.938Z,2.90
2023-01-09T09:17:27.639Z,2.28
2023-01-09T09:20:15.003Z,1.95
2023-01-09T09:23:02.971Z,2.88
2023-01-09T09:25:50.246Z,4.03
2023-01-09T09:28:37.914Z,2.47
2023-01-09T09:31:25.543Z,4.53
2023-01-09T09:34:14.410Z,1.38
2023-01-09T09:37:01.687Z,2.50
2023-01-09T09:39:49.188Z,3.78
2023-01-09T09:43:09.842Z,2.80
2023-01-09T09:46:05.208Z,5.13
2023-01-09T09:48:56.011Z,1.45
2023-01-09T09:51:56.241Z,2.67
2023-01-09T09:54:47.042Z,2.38
2023-01-09T09:57:38.136Z,1.85
2023-01-09T10:00:26.005Z,2.50
2023-01-09T10:03:33.380Z,2.03
2023-01-09T10:06:28.416Z,4.25
2023-01-09T10:09:30.119Z,3.50
2023-01-09T10:12:29.372Z,2.72
2023-01-09T10:15:19.333Z,2.53
2023-01-09T10:18:17.699Z,3.50
2023-01-09T10:21:12.075Z,2.63
2023-01-09T10:24:23.314Z,4.57
2023-01-09T10:27:34.927Z,6.05
2023-01-09T10:30:30.271Z,5.22
2023-01-09T10:33:42.263Z,4.30
2023-01-09T10:36:50.686Z,5.90
2023-01-09T10:39:44.858Z,5.95
2023-01-09T10:42:35.577Z,6.60
2023-01-09T10:45:26.613Z,5.07
2023-01-09T10:48:20.958Z,4.90
2023-01-09T10:54:03.566Z,6.88
2023-01-09T10:56:56.712Z,6.75
2023-01-09T10:59:44.432Z,4.07
2023-01-09T11:02:34.538Z,5.35
2023-01-09T11:05:24.400Z,4.65
2023-01-09T11:08:23.046Z,3.78
2023-01-09T11:11:12.803Z,4.50
2023-01-09T11:14:08.980Z,3.50
2023-01-09T11:16:58.972Z,3.95
2023-01-09T11:20:02.328Z,5.22
2023-01-09T11:22:50.384Z,5.03
2023-01-09T11:25:52.449Z,4.78
2023-01-09T11:28:40.130Z,5.20
2023-01-09T11:31:29.825Z,4.28
2023-01-09T11:34:18.697Z,3.00
2023-01-09T11:37:09.875Z,3.85
2023-01-09T11:39:58.669Z,4.57
2023-01-09T11:43:02.874Z,2.35
2023-01-09T11:46:00.480Z,3.13
2023-01-09T11:48:58.056Z,4.25
2023-01-09T11:51:45.755Z,3.47
2023-01-09T11:54:35.730Z,4.13
2023-01-09T11:57:25.454Z,7.43
2023-01-09T12:00:27.258Z,3.47
2023-01-09T12:03:25.750Z,5.25
2023-01-09T12:06:24.040Z,3.28
2023-01-09T12:09:17.866Z,3.17
2023-01-09T12:12:18.534Z,4.05
2023-01-09T12:15:22.593Z,4.43
2023-01-09T12:18:25.684Z,3.60
2023-01-09T12:21:24.455Z,2.95
2023-01-09T12:24:30.067Z,3.30
2023-01-09T12:27:29.455Z,2.92
2023-01-09T12:30:28.343Z,2.28
2023-01-09T12:33:31.989Z,6.32
2023-01-09T12:36:26.826Z,3.70
2023-01-09T12:39:28.022Z,2.70
2023-01-09T12:42:29.818Z,10.85
2023-01-09T12:45:29.956Z,3.53
2023-01-09T12:48:33.070Z,4.85
2023-01-09T12:51:28.876Z,2.97
2023-01-09T12:54:25.797Z,8.02
2023-01-09T12:57:20.605Z,3.05
2023-01-09T13:00:18.960Z,5.38
2023-01-09T13:03:13.847Z,3.92
2023-01-09T13:06:03.667Z,5.90
2023-01-09T13:09:07.603Z,3.40
2023-01-09T13:12:03.404Z,2.55
2023-01-09T13:14:53.506Z,5.13
2023-01-09T13:17:44.681Z,3.28
2023-01-09T13:20:36.905Z,8.05
2023-01-09T13:23:38.166Z,3.53
2023-01-09T13:26:30.517Z,3.00
2023-01-09T13:29:20.910Z,4.40
2023-01-09T13:32:30.345Z,3.10
2023-01-09T13:35:17.864Z,2.55
2023-01-09T13:38:05.679Z,2.65
2023-01-09T13:41:23.393Z,3.88
2023-01-09T13:44:25.152Z,5.43
2023-01-09T13:47:20.007Z,10.18
2023-01-09T13:50:24.508Z,4.25
2023-01-09T13:53:46.238Z,6.57
2023-01-09T13:56:34.055Z,5.03
2023-01-09T13:59:29.882Z,7.07
2023-01-09T14:02:31.989Z,5.65
2023-01-09T14:05:58.330Z,4.50
2023-01-09T14:08:46.697Z,4.43
2023-01-09T14:11:33.888Z,4.63
2023-01-09T14:14:30.165Z,5.90
2023-01-09T14:17:18.889Z,4.72
2023-01-09T14:20:10.231Z,4.95
2023-01-09T14:23:18.162Z,9.05
2023-01-09T14:26:07.491Z,4.70
2023-01-09T14:29:39.525Z,3.30
2023-01-09T14:32:44.425Z,5.50
2023-01-09T14:38:35.377Z,4.13
2023-01-09T14:41:41.895Z,3.15
2023-01-09T14:44:32.077Z,3.95
2023-01-09T14:47:25.837Z,6.10
2023-01-09T14:50:19.580Z,7.00
2023-01-09T14:53:12.165Z,9.13
2023-01-09T14:56:01.818Z,7.93
2023-01-09T14:58:52.724Z,7.90
2023-01-09T15:01:41.978Z,4.82
2023-01-09T15:04:35.039Z,7.10
2023-01-09T15:07:30.976Z,6.78
2023-01-09T15:10:21.480Z,6.00
2023-01-09T15:13:12.803Z,7.10
2023-01-09T15:16:02.042Z,7.05
2023-01-09T15:18:52.739Z,6.32
2023-01-09T15:21:41.799Z,6.15
2023-01-09T15:24:30.889Z,6.63
2023-01-09T15:27:22.021Z,6.03
2023-01-09T15:30:22.568Z,5.70
2023-01-09T15:33:13.107Z,4.55
2023-01-09T15:36:02.841Z,5.60
2023-01-09T15:38:53.589Z,6.28
2023-01-09T15:41:58.716Z,6.13
2023-01-09T15:44:48.422Z,12.68
2023-01-09T15:47:35.916Z,4.82
2023-01-09T15:50:28.872Z,9.70
2023-01-09T15:53:18.843Z,6.15
2023-01-09T15:56:19.628Z,6.00
2023-01-09T15:59:24.480Z,6.63
2023-01-09T16:05:19.699Z,6.05
2023-01-09T16:08:07.100Z,11.15
2023-01-09T16:10:58.095Z,10.95
2023-01-09T16:13:47.992Z,7.57
2023-01-09T16:16:36.127Z,6.78
2023-01-09T16:19:32.184Z,10.77
2023-01-09T16:22:23.151Z,9.80
2023-01-09T16:25:28.563Z,5.43
2023-01-09T16:28:23.007Z,12.80
2023-01-09T16:34:08.254Z,12.15
2023-01-09T16:36:55.912Z,6.93
2023-01-09T16:39:45.586Z,9.63
2023-01-09T16:42:51.306Z,10.27
2023-01-09T16:45:40.474Z,9.43
2023-01-09T16:48:29.379Z,7.60
2023-01-09T16:51:18.882Z,12.43
2023-01-09T16:54:06.546Z,11.30
2023-01-09T16:56:55.750Z,13.02
2023-01-09T16:59:43.633Z,11.45
2023-01-09T17:02:31.102Z,13.35
2023-01-09T17:05:19.671Z,11.98
2023-01-09T17:08:20.757Z,12.43
2023-01-09T17:11:11.877Z,13.77
2023-01-09T17:13:59.199Z,9.82
2023-01-09T17:16:47.089Z,12.07
2023-01-09T17:19:34.414Z,8.88
2023-01-09T17:22:22.903Z,7.70
2023-01-09T17:25:31.433Z,10.68
2023-01-09T17:28:36.166Z,11.40
2023-01-09T17:31:23.655Z,12.45
2023-01-09T17:34:11.010Z,10.82
2023-01-09T17:36:58.580Z,9.90
2023-01-09T17:39:47.262Z,13.48
2023-01-09T17:42:34.864Z,13.48
2023-01-09T17:45:22.497Z,13.45
2023-01-09T17:48:16.398Z,15.05
2023-01-09T17:51:03.576Z,16.17
2023-01-09T17:53:51.492Z,11.18
2023-01-09T17:56:42.612Z,15.43
2023-01-09T17:59:30.451Z,12.32
2023-01-09T18:02:19.431Z,11.98
2023-01-09T18:05:07.772Z,9.85
2023-01-09T18:07:55.291Z,12.10
2023-01-09T18:10:43.965Z,14.25
2023-01-09T18:13:33.594Z,14.43
2023-01-09T18:16:24.171Z,18.90
2023-01-09T18:19:11.750Z,13.48
2023-01-09T18:21:59.953Z,11.93
2023-01-09T18:24:47.523Z,11.98
2023-01-09T18:27:37.951Z,11.20
2023-01-09T18:30:27.147Z,15.02
2023-01-09T18:33:15.746Z,13.98
2023-01-09T18:36:06.759Z,15.07
2023-01-09T18:38:54.428Z,15.77
2023-01-09T18:41:42.650Z,15.75
2023-01-09T18:44:29.862Z,15.20
2023-01-09T18:47:18.765Z,16.45
2023-01-09T18:50:06.991Z,13.30
2023-01-09T18:52:55.366Z,10.20
2023-01-09T18:55:42.833Z,15.23
2023-01-09T18:58:29.804Z,12.93
2023-01-09T19:01:17.871Z,20.45
2023-01-09T19:04:06.825Z,16.38
2023-01-09T19:06:56.145Z,15.15
2023-01-09T19:09:43.583Z,20.98
2023-01-09T19:12:31.178Z,13.43
2023-01-09T19:15:18.969Z,19.00
2023-01-09T19:18:06.691Z,19.70
2023-01-09T19:20:56.475Z,16.50
2023-01-09T19:23:45.404Z,22.65
2023-01-09T19:26:32.739Z,20.77
2023-01-09T19:29:20.456Z,17.65
2023-01-09T19:32:08.630Z,21.48
2023-01-09T19:34:56.130Z,19.92
2023-01-09T19:37:45.431Z,16.10
2023-01-09T19:40:33.201Z,17.33
2023-01-09T19:43:26.805Z,17.60
2023-01-09T19:46:17.073Z,20.65
2023-01-09T19:49:06.148Z,20.10
2023-01-09T19:51:55.829Z,17.60
2023-01-09T19:54:44.529Z,17.13
2023-01-09T19:57:32.066Z,21.52
2023-01-09T20:00:20.364Z,16.23
2023-01-09T20:03:07.594Z,20.63
2023-01-09T20:05:55.146Z,15.57
2023-01-09T20:08:42.797Z,16.30
2023-01-09T20:11:33.385Z,13.77
2023-01-09T20:14:22.380Z,19.08
2023-01-09T20:17:10.134Z,16.70
2023-01-09T20:19:57.383Z,15.35
2023-01-09T20:22:44.858Z,18.70
2023-01-09T20:25:32.474Z,15.30
2023-01-09T20:28:22.058Z,17.75
2023-01-09T20:31:10.697Z,18.98
2023-01-09T20:33:59.744Z,15.52
2023-01-09T20:36:47.448Z,21.52
2023-01-09T20:39:35.138Z,19.17
2023-01-09T20:42:22.491Z,21.13
2023-01-09T20:45:12.049Z,17.30
2023-01-09T20:47:59.515Z,15.57
2023-01-09T20:50:47.142Z,23.58
2023-01-09T20:53:34.610Z,22.42
2023-01-09T20:56:22.475Z,20.67
2023-01-09T20:59:12.826Z,19.13
2023-01-09T21:02:01.465Z,20.70
2023-01-09T21:04:49.026Z,25.00
2023-01-09T21:07:36.293Z,23.30
2023-01-09T21:10:24.042Z,22.65
2023-01-09T21:13:11.634Z,22.80
2023-01-09T21:16:02.002Z,20.00
2023-01-09T21:18:51.410Z,22.98
2023-01-09T21:21:38.829Z,15.30
2023-01-09T21:24:26.500Z,15.07
2023-01-09T21:27:14.074Z,16.98
2023-01-09T21:30:01.662Z,12.25
2023-01-09T21:32:49.243Z,17.65
2023-01-09T21:35:38.151Z,23.35
2023-01-09T21:38:27.441Z,26.65
2023-01-09T21:41:39.988Z,17.33
2023-01-09T21:44:45.147Z,20.50
2023-01-09T21:47:33.341Z,18.65
2023-01-09T21:50:20.794Z,24.35
2023-01-09T21:53:10.156Z,18.98
2023-01-09T21:55:57.318Z,17.75
2023-01-09T21:58:45.224Z,21.20
2023-01-09T22:01:32.503Z,18.98
2023-01-09T22:04:21.101Z,20.20
2023-01-09T22:07:10.044Z,23.27
2023-01-09T22:09:58.719Z,22.83
2023-01-09T22:13:06.232Z,21.75
2023-01-09T22:15:54.098Z,23.73
2023-01-09T22:18:41.443Z,20.90
2023-01-09T22:21:28.993Z,24.50
2023-01-09T22:24:18.553Z,23.92
2023-01-09T22:27:07.514Z,19.83
2023-01-09T22:29:54.776Z,15.77
2023-01-09T22:32:43.158Z,24.38
2023-01-09T22:35:30.466Z,22.48
2023-01-09T22:38:17.845Z,12.23
2023-01-09T22:41:05.344Z,19.15
2023-01-09T22:43:54.245Z,18.30
2023-01-09T22:46:42.026Z,16.50
2023-01-09T22:49:33.538Z,16.00
2023-01-09T22:52:29.371Z,17.88
2023-01-09T22:55:16.854Z,14.80
2023-01-09T22:58:04.305Z,17.27
2023-01-09T23:00:53.272Z,12.93
2023-01-09T23:03:41.345Z,16.50
2023-01-09T23:06:28.770Z,15.48
2023-01-09T23:09:16.232Z,15.25
2023-01-09T23:12:03.788Z,19.98
2023-01-09T23:14:51.522Z,16.65
2023-01-09T23:17:40.375Z,23.42
2023-01-09T23:20:27.875Z,19.95
2023-01-09T23:23:15.359Z,21.00
2023-01-09T23:26:04.849Z,20.65
2023-01-09T23:28:51.869Z,18.27
2023-01-09T23:31:39.507Z,23.25
2023-01-09T23:34:28.503Z,23.88
2023-01-09T23:37:16.461Z,23.42
2023-01-09T23:40:03.946Z,20.70
2023-01-09T23:43:09.011Z,22.00
2023-01-09T23:48:43.640Z,24.40
2023-01-09T23:51:32.763Z,22.10
2023-01-09T23:54:20.140Z,18.63
2023-01-09T23:57:07.146Z,27.13
2023-01-09T23:59:54.746Z,28.02
